sensor_id;sensor_type;location;lat;lon;timestamp;temperature;humidity
20831;DHT22;10576;53.556;9.868;2023-10-09T00:02:10;11.20;99.90
20831;DHT22;10576;53.556;9.868;2023-10-09T00:04:36;11.20;99.90
20831;DHT22;10576;53.556;9.868;2023-10-09T00:07:02;11.30;99.90
20831;DHT22;10576;53.556;9.868;2023-10-09T00:09:28;11.30;99.90
20831;DHT22;10576;53.556;9.868;2023-10-09T00:11:56;11.30;99.90
20831;DHT22;10576;53.556;9.868;2023-10-09T00:14:23;9.70;99.90
20831;DHT22;10576;53.556;9.868;2023-10-09T00:16:49;11.30;99.90
20831;DHT22;10576;53.556;9.868;2023-10-09T00:19:21;11.30;99.90
20831;DHT22;10576;53.556;9.868;2023-10-09T00:21:55;11.30;99.90
20831;DHT22;10576;53.556;9.868;2023-10-09T00:24:21;11.30;99.90
20831;DHT22;10576;53.556;9.868;2023-10-09T00:26:53;11.30;99.90
20831;DHT22;10576;53.556;9.868;2023-10-09T00:29:21;11.30;99.90
20831;DHT22;10576;53.556;9.868;2023-10-09T00:31:53;11.20;99.90
20831;DHT22;10576;53.556;9.868;2023-10-09T00:34:38;11.20;99.90
20831;DHT22;10576;53.556;9.868;2023-10-09T00:37:10;11.20;99.90
20831;DHT22;10576;53.556;9.868;2023-10-09T00:39:59;11.10;99.90
20831;DHT22;10576;53.556;9.868;2023-10-09T00:42:25;11.10;99.90
20831;DHT22;10576;53.556;9.868;2023-10-09T00:45:02;11.10;99.90
20831;DHT22;10576;53.556;9.868;2023-10-09T00:47:31;11.10;99.90
20831;DHT22;10576;53.556;9.868;2023-10-09T00:50:02;11.10;99.90
20831;DHT22;10576;53.556;9.868;2023-10-09T00:52:37;11.10;99.90
20831;DHT22;10576;53.556;9.868;2023-10-09T00:55:14;11.10;99.90
20831;DHT22;10576;53.556;9.868;2023-10-09T00:57:43;11.10;99.90
20831;DHT22;10576;53.556;9.868;2023-10-09T01:00:21;11.10;99.90
20831;DHT22;10576;53.556;9.868;2023-10-09T01:03:06;11.00;99.90
20831;DHT22;10576;53.556;9.868;2023-10-09T01:08:18;11.10;99.90
20831;DHT22;10576;53.556;9.868;2023-10-09T01:10:50;11.00;99.90
20831;DHT22;10576;53.556;9.868;2023-10-09T01:13:18;11.00;99.90
20831;DHT22;10576;53.556;9.868;2023-10-09T01:15:44;11.00;99.90
20831;DHT22;10576;53.556;9.868;2023-10-09T01:18:11;11.00;99.90
20831;DHT22;10576;53.556;9.868;2023-10-09T01:20:37;10.90;99.90
20831;DHT22;10576;53.556;9.868;2023-10-09T01:23:10;11.00;99.90
20831;DHT22;10576;53.556;9.868;2023-10-09T01:25:35;11.00;99.90
20831;DHT22;10576;53.556;9.868;2023-10-09T01:28:14;10.90;99.90
20831;DHT22;10576;53.556;9.868;2023-10-09T01:30:41;11.00;99.90
20831;DHT22;10576;53.556;9.868;2023-10-09T01:33:08;10.90;99.90
20831;DHT22;10576;53.556;9.868;2023-10-09T01:35:53;11.00;99.90
20831;DHT22;10576;53.556;9.868;2023-10-09T01:38:27;10.90;99.90
20831;DHT22;10576;53.556;9.868;2023-10-09T01:41:07;10.90;99.90
20831;DHT22;10576;53.556;9.868;2023-10-09T01:43:33;10.90;99.90
20831;DHT22;10576;53.556;9.868;2023-10-09T01:46:00;10.90;99.90
20831;DHT22;10576;53.556;9.868;2023-10-09T01:48:26;10.90;99.90
20831;DHT22;10576;53.556;9.868;2023-10-09T01:50:52;10.90;99.90
20831;DHT22;10576;53.556;9.868;2023-10-09T01:53:18;10.90;99.90
20831;DHT22;10576;53.556;9.868;2023-10-09T01:55:47;10.80;99.90
20831;DHT22;10576;53.556;9.868;2023-10-09T01:58:13;10.80;99.90
20831;DHT22;10576;53.556;9.868;2023-10-09T02:00:47;10.80;99.90
20831;DHT22;10576;53.556;9.868;2023-10-09T02:03:21;10.80;99.90
20831;DHT22;10576;53.556;9.868;2023-10-09T02:05:50;10.70;99.90
20831;DHT22;10576;53.556;9.868;2023-10-09T02:08:19;9.00;99.90
20831;DHT22;10576;53.556;9.868;2023-10-09T02:10:52;10.60;99.90
20831;DHT22;10576;53.556;9.868;2023-10-09T02:13:20;10.60;99.90
20831;DHT22;10576;53.556;9.868;2023-10-09T02:15:55;10.60;99.90
20831;DHT22;10576;53.556;9.868;2023-10-09T02:18:24;10.60;99.90
20831;DHT22;10576;53.556;9.868;2023-10-09T02:23:31;10.60;99.90
20831;DHT22;10576;53.556;9.868;2023-10-09T02:26:12;10.50;99.90
20831;DHT22;10576;53.556;9.868;2023-10-09T02:28:50;10.50;99.90
20831;DHT22;10576;53.556;9.868;2023-10-09T02:31:27;10.50;99.90
20831;DHT22;10576;53.556;9.868;2023-10-09T02:34:00;10.50;99.90
20831;DHT22;10576;53.556;9.868;2023-10-09T02:36:31;10.60;99.90
20831;DHT22;10576;53.556;9.868;2023-10-09T02:38:56;10.60;99.90
20831;DHT22;10576;53.556;9.868;2023-10-09T02:43:48;10.50;99.90
20831;DHT22;10576;53.556;9.868;2023-10-09T02:46:21;10.50;99.90
20831;DHT22;10576;53.556;9.868;2023-10-09T02:48:54;10.50;99.90
20831;DHT22;10576;53.556;9.868;2023-10-09T02:51:24;10.60;99.90
20831;DHT22;10576;53.556;9.868;2023-10-09T02:53:53;10.60;99.90
20831;DHT22;10576;53.556;9.868;2023-10-09T02:56:20;10.50;99.90
20831;DHT22;10576;53.556;9.868;2023-10-09T02:58:53;10.60;99.90
20831;DHT22;10576;53.556;9.868;2023-10-09T03:01:18;10.60;99.90
20831;DHT22;10576;53.556;9.868;2023-10-09T03:03:44;10.50;99.90
20831;DHT22;10576;53.556;9.868;2023-10-09T03:06:14;10.50;99.90
20831;DHT22;10576;53.556;9.868;2023-10-09T03:08:44;10.60;99.90
20831;DHT22;10576;53.556;9.868;2023-10-09T03:11:12;10.60;99.90
20831;DHT22;10576;53.556;9.868;2023-10-09T03:13:40;10.50;99.90
20831;DHT22;10576;53.556;9.868;2023-10-09T03:16:08;10.50;99.90
20831;DHT22;10576;53.556;9.868;2023-10-09T03:18:34;10.60;99.90
20831;DHT22;10576;53.556;9.868;2023-10-09T03:21:02;10.60;99.90
20831;DHT22;10576;53.556;9.868;2023-10-09T03:23:27;10.50;99.90
20831;DHT22;10576;53.556;9.868;2023-10-09T03:25:55;10.50;99.90
20831;DHT22;10576;53.556;9.868;2023-10-09T03:28:21;10.50;99.90
20831;DHT22;10576;53.556;9.868;2023-10-09T03:30:46;10.50;99.90
20831;DHT22;10576;53.556;9.868;2023-10-09T03:33:13;10.40;99.90
20831;DHT22;10576;53.556;9.868;2023-10-09T03:35:39;10.40;99.90
20831;DHT22;10576;53.556;9.868;2023-10-09T03:38:04;10.40;99.90
20831;DHT22;10576;53.556;9.868;2023-10-09T03:40:42;10.50;99.90
20831;DHT22;10576;53.556;9.868;2023-10-09T03:43:11;10.40;99.90
20831;DHT22;10576;53.556;9.868;2023-10-09T03:45:37;10.40;99.90
20831;DHT22;10576;53.556;9.868;2023-10-09T03:48:04;10.40;99.90
20831;DHT22;10576;53.556;9.868;2023-10-09T03:51:02;10.40;99.90
20831;DHT22;10576;53.556;9.868;2023-10-09T03:53:38;10.40;99.90
20831;DHT22;10576;53.556;9.868;2023-10-09T03:56:08;10.40;99.90
20831;DHT22;10576;53.556;9.868;2023-10-09T03:58:48;10.40;99.90
20831;DHT22;10576;53.556;9.868;2023-10-09T04:01:15;10.40;99.90
20831;DHT22;10576;53.556;9.868;2023-10-09T04:03:47;10.40;99.90
20831;DHT22;10576;53.556;9.868;2023-10-09T04:06:12;10.30;99.90
20831;DHT22;10576;53.556;9.868;2023-10-09T04:08:38;10.30;99.90
20831;DHT22;10576;53.556;9.868;2023-10-09T04:11:13;10.30;99.90
20831;DHT22;10576;53.556;9.868;2023-10-09T04:13:44;10.20;99.90
20831;DHT22;10576;53.556;9.868;2023-10-09T04:16:14;10.20;99.90
20831;DHT22;10576;53.556;9.868;2023-10-09T04:18:58;10.20;99.90
20831;DHT22;10576;53.556;9.868;2023-10-09T04:21:24;10.10;99.90
20831;DHT22;10576;53.556;9.868;2023-10-09T04:24:06;10.10;99.90
20831;DHT22;10576;53.556;9.868;2023-10-09T04:26:47;10.10;99.90
20831;DHT22;10576;53.556;9.868;2023-10-09T04:29:13;10.10;99.90
20831;DHT22;10576;53.556;9.868;2023-10-09T04:31:45;10.20;99.90
20831;DHT22;10576;53.556;9.868;2023-10-09T04:34:17;10.20;99.90
20831;DHT22;10576;53.556;9.868;2023-10-09T04:36:49;10.10;99.90
20831;DHT22;10576;53.556;9.868;2023-10-09T04:39:16;10.20;99.90
20831;DHT22;10576;53.556;9.868;2023-10-09T04:41:54;10.10;99.90
20831;DHT22;10576;53.556;9.868;2023-10-09T04:44:46;10.10;99.90
20831;DHT22;10576;53.556;9.868;2023-10-09T04:47:38;10.10;99.90
20831;DHT22;10576;53.556;9.868;2023-10-09T04:50:14;10.10;99.90
20831;DHT22;10576;53.556;9.868;2023-10-09T04:53:03;10.10;99.90
20831;DHT22;10576;53.556;9.868;2023-10-09T04:55:48;10.10;99.90
20831;DHT22;10576;53.556;9.868;2023-10-09T04:58:20;10.20;99.90
20831;DHT22;10576;53.556;9.868;2023-10-09T05:00:52;10.20;99.90
20831;DHT22;10576;53.556;9.868;2023-10-09T05:03:24;10.20;99.90
20831;DHT22;10576;53.556;9.868;2023-10-09T05:05:53;10.20;99.90
20831;DHT22;10576;53.556;9.868;2023-10-09T05:08:25;10.20;99.90
20831;DHT22;10576;53.556;9.868;2023-10-09T05:10:55;10.10;99.90
20831;DHT22;10576;53.556;9.868;2023-10-09T05:13:36;10.20;99.90
20831;DHT22;10576;53.556;9.868;2023-10-09T05:18:30;10.20;99.90
20831;DHT22;10576;53.556;9.868;2023-10-09T05:21:03;10.10;99.90
20831;DHT22;10576;53.556;9.868;2023-10-09T05:23:37;10.10;99.90
20831;DHT22;10576;53.556;9.868;2023-10-09T05:26:09;10.20;99.90
20831;DHT22;10576;53.556;9.868;2023-10-09T05:28:53;10.10;99.90
20831;DHT22;10576;53.556;9.868;2023-10-09T05:31:23;10.20;99.90
20831;DHT22;10576;53.556;9.868;2023-10-09T05:34:08;10.10;99.90
20831;DHT22;10576;53.556;9.868;2023-10-09T05:36:33;10.10;99.90
20831;DHT22;10576;53.556;9.868;2023-10-09T05:39:00;10.20;99.90
20831;DHT22;10576;53.556;9.868;2023-10-09T05:41:45;10.10;99.90
20831;DHT22;10576;53.556;9.868;2023-10-09T05:44:16;10.10;99.90
20831;DHT22;10576;53.556;9.868;2023-10-09T05:47:00;10.10;99.90
20831;DHT22;10576;53.556;9.868;2023-10-09T05:49:49;10.00;99.90
20831;DHT22;10576;53.556;9.868;2023-10-09T05:52:26;10.00;99.90
20831;DHT22;10576;53.556;9.868;2023-10-09T05:55:24;9.90;99.90
20831;DHT22;10576;53.556;9.868;2023-10-09T05:57:53;10.00;99.90
20831;DHT22;10576;53.556;9.868;2023-10-09T06:00:34;10.00;99.90
20831;DHT22;10576;53.556;9.868;2023-10-09T06:03:18;9.90;99.90
20831;DHT22;10576;53.556;9.868;2023-10-09T06:05:47;9.90;99.90
20831;DHT22;10576;53.556;9.868;2023-10-09T06:08:19;10.00;99.90
20831;DHT22;10576;53.556;9.868;2023-10-09T06:11:11;10.00;99.90
20831;DHT22;10576;53.556;9.868;2023-10-09T06:13:56;10.30;99.90
20831;DHT22;10576;53.556;9.868;2023-10-09T06:16:34;10.00;99.90
20831;DHT22;10576;53.556;9.868;2023-10-09T06:19:12;10.00;99.90
20831;DHT22;10576;53.556;9.868;2023-10-09T06:21:59;9.80;99.90
20831;DHT22;10576;53.556;9.868;2023-10-09T06:24:37;9.80;99.90
20831;DHT22;10576;53.556;9.868;2023-10-09T06:27:05;9.80;99.90
20831;DHT22;10576;53.556;9.868;2023-10-09T06:29:31;9.90;99.90
20831;DHT22;10576;53.556;9.868;2023-10-09T06:32:09;9.90;99.90
20831;DHT22;10576;53.556;9.868;2023-10-09T06:34:44;9.90;99.90
20831;DHT22;10576;53.556;9.868;2023-10-09T06:37:17;9.90;99.90
20831;DHT22;10576;53.556;9.868;2023-10-09T06:39:52;10.00;99.90
20831;DHT22;10576;53.556;9.868;2023-10-09T06:42:23;10.00;99.90
20831;DHT22;10576;53.556;9.868;2023-10-09T06:45:01;10.00;99.90
20831;DHT22;10576;53.556;9.868;2023-10-09T06:47:30;10.00;99.90
20831;DHT22;10576;53.556;9.868;2023-10-09T06:50:06;10.00;99.90
20831;DHT22;10576;53.556;9.868;2023-10-09T06:52:50;10.10;99.90
20831;DHT22;10576;53.556;9.868;2023-10-09T06:55:37;10.00;99.90
20831;DHT22;10576;53.556;9.868;2023-10-09T06:58:14;10.00;99.90
20831;DHT22;10576;53.556;9.868;2023-10-09T07:00:50;10.10;99.90
20831;DHT22;10576;53.556;9.868;2023-10-09T07:03:34;10.10;99.90
20831;DHT22;10576;53.556;9.868;2023-10-09T07:06:07;10.10;99.90
20831;DHT22;10576;53.556;9.868;2023-10-09T07:11:32;10.00;99.90
20831;DHT22;10576;53.556;9.868;2023-10-09T07:16:35;10.20;99.90
20831;DHT22;10576;53.556;9.868;2023-10-09T07:19:06;10.20;99.90
20831;DHT22;10576;53.556;9.868;2023-10-09T07:21:36;10.20;99.90
20831;DHT22;10576;53.556;9.868;2023-10-09T07:24:07;10.20;99.90
20831;DHT22;10576;53.556;9.868;2023-10-09T07:26:42;10.30;99.90
20831;DHT22;10576;53.556;9.868;2023-10-09T07:29:21;10.30;99.90
20831;DHT22;10576;53.556;9.868;2023-10-09T07:31:53;10.20;99.90
20831;DHT22;10576;53.556;9.868;2023-10-09T07:34:37;10.20;99.90
20831;DHT22;10576;53.556;9.868;2023-10-09T07:37:29;10.20;99.90
20831;DHT22;10576;53.556;9.868;2023-10-09T07:39:56;10.30;99.90
20831;DHT22;10576;53.556;9.868;2023-10-09T07:42:27;10.40;99.90
20831;DHT22;10576;53.556;9.868;2023-10-09T07:45:02;10.40;99.90
20831;DHT22;10576;53.556;9.868;2023-10-09T07:47:56;10.40;99.90
20831;DHT22;10576;53.556;9.868;2023-10-09T07:50:25;10.40;99.90
20831;DHT22;10576;53.556;9.868;2023-10-09T07:52:56;10.50;99.90
20831;DHT22;10576;53.556;9.868;2023-10-09T07:55:40;10.40;99.90
20831;DHT22;10576;53.556;9.868;2023-10-09T07:58:11;10.60;99.90
20831;DHT22;10576;53.556;9.868;2023-10-09T08:00:37;10.60;99.90
20831;DHT22;10576;53.556;9.868;2023-10-09T08:03:23;10.50;99.90
20831;DHT22;10576;53.556;9.868;2023-10-09T08:05:57;12.10;99.90
20831;DHT22;10576;53.556;9.868;2023-10-09T08:08:33;10.50;99.90
20831;DHT22;10576;53.556;9.868;2023-10-09T08:10:58;10.60;99.90
20831;DHT22;10576;53.556;9.868;2023-10-09T08:13:50;10.70;99.90
20831;DHT22;10576;53.556;9.868;2023-10-09T08:16:22;10.70;99.90
20831;DHT22;10576;53.556;9.868;2023-10-09T08:18:49;10.80;99.90
20831;DHT22;10576;53.556;9.868;2023-10-09T08:21:17;10.90;99.90
20831;DHT22;10576;53.556;9.868;2023-10-09T08:23:42;10.90;99.90
20831;DHT22;10576;53.556;9.868;2023-10-09T08:26:14;11.00;99.90
20831;DHT22;10576;53.556;9.868;2023-10-09T08:28:43;11.00;99.90
20831;DHT22;10576;53.556;9.868;2023-10-09T08:31:09;11.10;99.90
20831;DHT22;10576;53.556;9.868;2023-10-09T08:33:44;11.10;99.90
20831;DHT22;10576;53.556;9.868;2023-10-09T08:36:10;11.10;99.90
20831;DHT22;10576;53.556;9.868;2023-10-09T08:38:40;10.80;99.90
20831;DHT22;10576;53.556;9.868;2023-10-09T08:41:09;11.10;99.90
20831;DHT22;10576;53.556;9.868;2023-10-09T08:43:50;11.20;99.90
20831;DHT22;10576;53.556;9.868;2023-10-09T08:46:18;11.10;99.90
20831;DHT22;10576;53.556;9.868;2023-10-09T08:48:44;11.10;99.90
20831;DHT22;10576;53.556;9.868;2023-10-09T08:51:10;11.10;99.90
20831;DHT22;10576;53.556;9.868;2023-10-09T08:53:36;11.20;99.90
20831;DHT22;10576;53.556;9.868;2023-10-09T08:56:09;11.20;99.90
20831;DHT22;10576;53.556;9.868;2023-10-09T08:58:35;11.20;99.90
20831;DHT22;10576;53.556;9.868;2023-10-09T09:01:02;11.20;99.90
20831;DHT22;10576;53.556;9.868;2023-10-09T09:03:37;11.30;99.90
20831;DHT22;10576;53.556;9.868;2023-10-09T09:06:04;11.40;99.90
20831;DHT22;10576;53.556;9.868;2023-10-09T09:08:30;11.30;99.90
20831;DHT22;10576;53.556;9.868;2023-10-09T09:13:46;11.50;99.90
20831;DHT22;10576;53.556;9.868;2023-10-09T09:16:15;11.60;99.90
20831;DHT22;10576;53.556;9.868;2023-10-09T09:18:53;11.60;99.90
20831;DHT22;10576;53.556;9.868;2023-10-09T09:21:42;11.60;99.90
20831;DHT22;10576;53.556;9.868;2023-10-09T09:24:10;11.60;99.90
20831;DHT22;10576;53.556;9.868;2023-10-09T09:26:48;11.60;99.90
20831;DHT22;10576;53.556;9.868;2023-10-09T09:32:01;11.60;99.90
20831;DHT22;10576;53.556;9.868;2023-10-09T09:34:53;11.60;99.90
20831;DHT22;10576;53.556;9.868;2023-10-09T09:37:30;11.60;99.90
20831;DHT22;10576;53.556;9.868;2023-10-09T09:39:58;11.70;99.90
20831;DHT22;10576;53.556;9.868;2023-10-09T09:42:27;11.70;99.90
20831;DHT22;10576;53.556;9.868;2023-10-09T09:44:53;11.70;99.90
20831;DHT22;10576;53.556;9.868;2023-10-09T09:47:19;11.70;99.90
20831;DHT22;10576;53.556;9.868;2023-10-09T09:50:03;11.70;99.90
20831;DHT22;10576;53.556;9.868;2023-10-09T09:52:36;11.80;99.90
20831;DHT22;10576;53.556;9.868;2023-10-09T09:55:08;11.80;99.90
20831;DHT22;10576;53.556;9.868;2023-10-09T09:57:40;11.70;99.90
20831;DHT22;10576;53.556;9.868;2023-10-09T10:00:07;11.80;99.90
20831;DHT22;10576;53.556;9.868;2023-10-09T10:02:43;11.80;99.90
20831;DHT22;10576;53.556;9.868;2023-10-09T10:05:10;11.80;99.90
20831;DHT22;10576;53.556;9.868;2023-10-09T10:07:37;11.80;99.90
20831;DHT22;10576;53.556;9.868;2023-10-09T10:10:33;11.80;99.90
20831;DHT22;10576;53.556;9.868;2023-10-09T10:12:59;11.90;99.90
20831;DHT22;10576;53.556;9.868;2023-10-09T10:18:12;11.90;99.90
20831;DHT22;10576;53.556;9.868;2023-10-09T10:23:30;11.80;99.90
20831;DHT22;10576;53.556;9.868;2023-10-09T10:26:11;11.80;99.90
20831;DHT22;10576;53.556;9.868;2023-10-09T10:28:41;11.80;99.90
20831;DHT22;10576;53.556;9.868;2023-10-09T10:31:11;11.80;99.90
20831;DHT22;10576;53.556;9.868;2023-10-09T10:36:36;11.80;99.90
20831;DHT22;10576;53.556;9.868;2023-10-09T10:41:30;12.00;99.90
20831;DHT22;10576;53.556;9.868;2023-10-09T10:44:01;11.90;99.90
20831;DHT22;10576;53.556;9.868;2023-10-09T10:46:46;12.00;99.90
20831;DHT22;10576;53.556;9.868;2023-10-09T10:49:17;12.10;99.90
20831;DHT22;10576;53.556;9.868;2023-10-09T10:51:51;13.60;99.90
20831;DHT22;10576;53.556;9.868;2023-10-09T10:54:26;12.20;99.90
20831;DHT22;10576;53.556;9.868;2023-10-09T10:56:58;12.20;99.90
20831;DHT22;10576;53.556;9.868;2023-10-09T10:59:25;12.30;99.90
20831;DHT22;10576;53.556;9.868;2023-10-09T11:01:52;12.30;99.90
20831;DHT22;10576;53.556;9.868;2023-10-09T11:04:23;12.30;99.90
20831;DHT22;10576;53.556;9.868;2023-10-09T11:06:56;12.30;99.90
20831;DHT22;10576;53.556;9.868;2023-10-09T11:09:47;12.40;99.90
20831;DHT22;10576;53.556;9.868;2023-10-09T11:12:31;12.40;99.90
20831;DHT22;10576;53.556;9.868;2023-10-09T11:15:15;12.40;99.90
20831;DHT22;10576;53.556;9.868;2023-10-09T11:18:05;12.40;99.90
20831;DHT22;10576;53.556;9.868;2023-10-09T11:20:54;12.40;99.90
20831;DHT22;10576;53.556;9.868;2023-10-09T11:23:29;12.30;99.90
20831;DHT22;10576;53.556;9.868;2023-10-09T11:25:58;12.40;99.90
20831;DHT22;10576;53.556;9.868;2023-10-09T11:28:44;12.50;99.90
20831;DHT22;10576;53.556;9.868;2023-10-09T11:31:14;12.50;99.90
20831;DHT22;10576;53.556;9.868;2023-10-09T11:33:46;12.40;99.90
20831;DHT22;10576;53.556;9.868;2023-10-09T11:36:21;12.50;99.90
20831;DHT22;10576;53.556;9.868;2023-10-09T11:38:59;12.60;99.90
20831;DHT22;10576;53.556;9.868;2023-10-09T11:41:39;12.60;99.90
20831;DHT22;10576;53.556;9.868;2023-10-09T11:44:06;12.60;99.90
20831;DHT22;10576;53.556;9.868;2023-10-09T11:46:32;12.70;99.90
20831;DHT22;10576;53.556;9.868;2023-10-09T11:49:15;12.70;99.90
20831;DHT22;10576;53.556;9.868;2023-10-09T11:51:47;12.70;99.90
20831;DHT22;10576;53.556;9.868;2023-10-09T11:54:35;12.70;99.90
20831;DHT22;10576;53.556;9.868;2023-10-09T11:57:01;12.70;99.90
20831;DHT22;10576;53.556;9.868;2023-10-09T11:59:30;12.70;99.90
20831;DHT22;10576;53.556;9.868;2023-10-09T12:02:04;12.70;99.90
20831;DHT22;10576;53.556;9.868;2023-10-09T12:04:29;12.70;99.90
20831;DHT22;10576;53.556;9.868;2023-10-09T12:06:58;12.80;99.90
20831;DHT22;10576;53.556;9.868;2023-10-09T12:09:32;12.80;99.90
20831;DHT22;10576;53.556;9.868;2023-10-09T12:12:03;13.00;99.90
20831;DHT22;10576;53.556;9.868;2023-10-09T12:14:29;13.00;99.90
20831;DHT22;10576;53.556;9.868;2023-10-09T12:17:01;13.00;99.90
20831;DHT22;10576;53.556;9.868;2023-10-09T12:19:33;13.00;99.90
20831;DHT22;10576;53.556;9.868;2023-10-09T12:21:59;13.10;99.90
20831;DHT22;10576;53.556;9.868;2023-10-09T12:24:32;13.10;99.90
20831;DHT22;10576;53.556;9.868;2023-10-09T12:26:58;13.10;99.90
20831;DHT22;10576;53.556;9.868;2023-10-09T12:29:24;13.10;99.90
20831;DHT22;10576;53.556;9.868;2023-10-09T12:31:54;13.10;99.90
20831;DHT22;10576;53.556;9.868;2023-10-09T12:34:26;13.10;99.90
20831;DHT22;10576;53.556;9.868;2023-10-09T12:36:56;13.20;99.90
20831;DHT22;10576;53.556;9.868;2023-10-09T12:39:26;13.10;99.90
20831;DHT22;10576;53.556;9.868;2023-10-09T12:41:58;13.20;99.90
20831;DHT22;10576;53.556;9.868;2023-10-09T12:44:35;13.30;99.90
20831;DHT22;10576;53.556;9.868;2023-10-09T12:47:07;13.20;99.90
20831;DHT22;10576;53.556;9.868;2023-10-09T12:49:33;13.20;99.90
20831;DHT22;10576;53.556;9.868;2023-10-09T12:51:58;13.30;99.90
20831;DHT22;10576;53.556;9.868;2023-10-09T12:54:27;13.30;99.90
20831;DHT22;10576;53.556;9.868;2023-10-09T12:56:53;13.30;99.90
20831;DHT22;10576;53.556;9.868;2023-10-09T12:59:18;13.20;99.90
20831;DHT22;10576;53.556;9.868;2023-10-09T13:01:45;13.20;99.90
20831;DHT22;10576;53.556;9.868;2023-10-09T13:04:15;13.20;99.90
20831;DHT22;10576;53.556;9.868;2023-10-09T13:06:42;13.30;99.90
20831;DHT22;10576;53.556;9.868;2023-10-09T13:09:13;13.20;99.90
20831;DHT22;10576;53.556;9.868;2023-10-09T13:11:39;13.30;99.90
20831;DHT22;10576;53.556;9.868;2023-10-09T13:14:06;13.30;99.90
20831;DHT22;10576;53.556;9.868;2023-10-09T13:16:42;13.30;99.90
20831;DHT22;10576;53.556;9.868;2023-10-09T13:19:08;13.40;99.90
20831;DHT22;10576;53.556;9.868;2023-10-09T13:21:37;13.50;99.90
20831;DHT22;10576;53.556;9.868;2023-10-09T13:24:04;13.50;99.90
20831;DHT22;10576;53.556;9.868;2023-10-09T13:26:30;13.50;99.90
20831;DHT22;10576;53.556;9.868;2023-10-09T13:28:56;13.60;99.90
20831;DHT22;10576;53.556;9.868;2023-10-09T13:31:22;13.70;99.90
20831;DHT22;10576;53.556;9.868;2023-10-09T13:33:51;13.70;99.90
20831;DHT22;10576;53.556;9.868;2023-10-09T13:36:19;13.70;99.90
20831;DHT22;10576;53.556;9.868;2023-10-09T13:38:55;13.70;99.90
20831;DHT22;10576;53.556;9.868;2023-10-09T13:41:21;13.80;99.90
20831;DHT22;10576;53.556;9.868;2023-10-09T13:43:47;13.80;99.90
20831;DHT22;10576;53.556;9.868;2023-10-09T13:46:17;13.90;99.90
20831;DHT22;10576;53.556;9.868;2023-10-09T13:48:43;13.90;99.90
20831;DHT22;10576;53.556;9.868;2023-10-09T13:51:11;13.90;99.90
20831;DHT22;10576;53.556;9.868;2023-10-09T13:53:43;13.90;99.90
20831;DHT22;10576;53.556;9.868;2023-10-09T13:56:16;14.00;99.90
20831;DHT22;10576;53.556;9.868;2023-10-09T13:58:49;14.10;99.90
20831;DHT22;10576;53.556;9.868;2023-10-09T14:01:19;14.10;99.90
20831;DHT22;10576;53.556;9.868;2023-10-09T14:03:54;14.20;99.90
20831;DHT22;10576;53.556;9.868;2023-10-09T14:06:19;14.20;99.90
20831;DHT22;10576;53.556;9.868;2023-10-09T14:08:59;14.20;99.90
20831;DHT22;10576;53.556;9.868;2023-10-09T14:11:25;17.00;99.90
20831;DHT22;10576;53.556;9.868;2023-10-09T14:13:52;14.20;99.90
20831;DHT22;10576;53.556;9.868;2023-10-09T14:16:17;14.20;99.90
20831;DHT22;10576;53.556;9.868;2023-10-09T14:18:58;14.20;99.90
20831;DHT22;10576;53.556;9.868;2023-10-09T14:21:25;14.30;99.90
20831;DHT22;10576;53.556;9.868;2023-10-09T14:23:54;14.30;99.90
20831;DHT22;10576;53.556;9.868;2023-10-09T14:26:25;14.20;99.90
20831;DHT22;10576;53.556;9.868;2023-10-09T14:28:52;14.30;99.90
20831;DHT22;10576;53.556;9.868;2023-10-09T14:31:18;14.30;99.90
20831;DHT22;10576;53.556;9.868;2023-10-09T14:33:48;14.30;99.90
20831;DHT22;10576;53.556;9.868;2023-10-09T14:36:16;14.40;99.90
20831;DHT22;10576;53.556;9.868;2023-10-09T14:38:43;14.40;99.90
20831;DHT22;10576;53.556;9.868;2023-10-09T14:41:12;14.50;99.90
20831;DHT22;10576;53.556;9.868;2023-10-09T14:43:38;14.40;99.90
20831;DHT22;10576;53.556;9.868;2023-10-09T14:46:03;14.40;99.90
20831;DHT22;10576;53.556;9.868;2023-10-09T14:48:38;14.40;99.90
20831;DHT22;10576;53.556;9.868;2023-10-09T14:51:04;14.40;99.90
20831;DHT22;10576;53.556;9.868;2023-10-09T14:53:30;14.30;99.90
20831;DHT22;10576;53.556;9.868;2023-10-09T14:55:56;14.30;99.90
20831;DHT22;10576;53.556;9.868;2023-10-09T14:58:22;14.30;99.90
20831;DHT22;10576;53.556;9.868;2023-10-09T15:00:51;14.40;99.90
20831;DHT22;10576;53.556;9.868;2023-10-09T15:03:16;14.40;99.90
20831;DHT22;10576;53.556;9.868;2023-10-09T15:05:48;14.30;99.90
20831;DHT22;10576;53.556;9.868;2023-10-09T15:08:14;14.40;99.90
20831;DHT22;10576;53.556;9.868;2023-10-09T15:10:46;14.40;99.90
20831;DHT22;10576;53.556;9.868;2023-10-09T15:13:13;14.40;99.90
20831;DHT22;10576;53.556;9.868;2023-10-09T15:15:42;14.40;99.90
20831;DHT22;10576;53.556;9.868;2023-10-09T15:18:07;14.40;99.90
20831;DHT22;10576;53.556;9.868;2023-10-09T15:20:34;14.40;99.90
20831;DHT22;10576;53.556;9.868;2023-10-09T15:23:00;14.50;99.90
20831;DHT22;10576;53.556;9.868;2023-10-09T15:25:26;14.50;99.90
20831;DHT22;10576;53.556;9.868;2023-10-09T15:27:52;14.50;99.90
20831;DHT22;10576;53.556;9.868;2023-10-09T15:30:17;14.60;99.90
20831;DHT22;10576;53.556;9.868;2023-10-09T15:32:43;14.70;99.90
20831;DHT22;10576;53.556;9.868;2023-10-09T15:35:09;14.70;99.90
20831;DHT22;10576;53.556;9.868;2023-10-09T15:37:38;14.90;99.90
20831;DHT22;10576;53.556;9.868;2023-10-09T15:40:05;15.00;99.90
20831;DHT22;10576;53.556;9.868;2023-10-09T15:42:31;15.10;99.90
20831;DHT22;10576;53.556;9.868;2023-10-09T15:44:56;15.10;99.90
20831;DHT22;10576;53.556;9.868;2023-10-09T15:47:22;15.10;99.90
20831;DHT22;10576;53.556;9.868;2023-10-09T15:49:47;15.20;99.90
20831;DHT22;10576;53.556;9.868;2023-10-09T15:52:13;15.30;99.90
20831;DHT22;10576;53.556;9.868;2023-10-09T15:54:42;14.90;99.90
20831;DHT22;10576;53.556;9.868;2023-10-09T15:57:08;15.30;99.90
20831;DHT22;10576;53.556;9.868;2023-10-09T15:59:35;15.30;99.90
20831;DHT22;10576;53.556;9.868;2023-10-09T16:02:01;15.30;99.90
20831;DHT22;10576;53.556;9.868;2023-10-09T16:04:28;15.30;99.90
20831;DHT22;10576;53.556;9.868;2023-10-09T16:07:00;15.30;99.90
20831;DHT22;10576;53.556;9.868;2023-10-09T16:09:25;15.30;99.90
20831;DHT22;10576;53.556;9.868;2023-10-09T16:11:51;15.40;99.90
20831;DHT22;10576;53.556;9.868;2023-10-09T16:14:17;15.40;99.90
20831;DHT22;10576;53.556;9.868;2023-10-09T16:16:42;15.40;99.90
20831;DHT22;10576;53.556;9.868;2023-10-09T16:19:09;15.40;99.90
20831;DHT22;10576;53.556;9.868;2023-10-09T16:21:38;15.40;99.90
20831;DHT22;10576;53.556;9.868;2023-10-09T16:24:03;15.40;99.90
20831;DHT22;10576;53.556;9.868;2023-10-09T16:26:34;15.40;99.90
20831;DHT22;10576;53.556;9.868;2023-10-09T16:29:07;15.30;99.90
20831;DHT22;10576;53.556;9.868;2023-10-09T16:31:36;15.30;99.90
20831;DHT22;10576;53.556;9.868;2023-10-09T16:34:02;15.30;99.90